Time;durP1;ratioP1;P1;durP2;ratioP2;P2;SDS_P1;SDS_P2;PMS_P1;PMS_P2;Temp;Humidity;BMP_temperature;BMP_pressure;BME280_temperature;BME280_humidity;BME280_pressure;Samples;Min_cycle;Max_cycle;Signal;HPM_P1;HPM_P2
2023/07/27 00:01:26;;;;;;;1.20;1.00;;;;;;;10.37;71.92;99001.58;106556;1272;24196;-52
2023/07/27 00:03:55;;;;;;;2.20;0.90;;;;;;;10.41;71.68;99003.59;106435;1274;22894;-52
2023/07/27 00:06:24;;;;;;;2.70;1.50;;;;;;;10.41;71.57;99002.17;106457;1272;99116;-51
2023/07/27 00:08:53;;;;;;;2.10;0.90;;;;;;;10.41;71.72;98997.34;106492;1267;22694;-56
2023/07/27 00:11:22;;;;;;;5.30;1.30;;;;;;;10.41;71.82;98995.10;106381;1274;99388;-55
2023/07/27 00:13:51;;;;;;;3.00;1.30;;;;;;;10.41;71.87;98992.30;106534;1274;24386;-51
2023/07/27 00:16:20;;;;;;;1.80;0.90;;;;;;;10.40;72.10;98986.81;106592;1275;99449;-53
2023/07/27 00:18:49;;;;;;;3.40;1.10;;;;;;;10.40;72.22;98989.59;106557;1273;23355;-52
2023/07/27 00:21:18;;;;;;;1.80;1.10;;;;;;;10.42;72.63;98991.17;106451;1271;24290;-55
2023/07/27 00:23:47;;;;;;;2.70;0.90;;;;;;;10.44;72.44;98993.15;106436;1272;99257;-53
2023/07/27 00:26:17;;;;;;;2.20;1.10;;;;;;;10.43;72.31;98994.77;106502;1272;24250;-52
2023/07/27 00:28:47;;;;;;;2.80;1.10;;;;;;;10.40;72.29;98992.86;106409;1264;99419;-51
2023/07/27 00:31:18;;;;;;;3.20;1.20;;;;;;;10.38;72.47;98990.55;106497;1271;22911;-53
2023/07/27 00:33:47;;;;;;;2.50;1.00;;;;;;;10.36;72.37;98987.04;106511;1273;25569;-51
2023/07/27 00:36:16;;;;;;;2.60;1.30;;;;;;;10.33;72.77;98984.73;106488;1274;99170;-50
2023/07/27 00:38:45;;;;;;;2.80;1.00;;;;;;;10.33;72.93;98983.52;106497;1274;25298;-52
2023/07/27 00:41:14;;;;;;;4.20;1.20;;;;;;;10.33;73.01;98988.25;106465;1273;99382;-52
2023/07/27 00:43:46;;;;;;;1.50;0.90;;;;;;;10.32;73.21;98988.27;106471;1272;22601;-52
2023/07/27 00:46:15;;;;;;;2.30;1.20;;;;;;;10.31;73.21;98983.48;106478;1273;99494;-51
2023/07/27 00:48:44;;;;;;;5.70;1.10;;;;;;;10.30;73.26;98987.73;106620;1273;22522;-51
2023/07/27 00:51:13;;;;;;;2.60;1.20;;;;;;;10.27;73.32;98993.98;106519;1272;24260;-56
2023/07/27 00:53:43;;;;;;;3.30;1.30;;;;;;;10.25;73.51;98987.61;106497;1273;99136;-51
2023/07/27 00:56:12;;;;;;;4.00;1.40;;;;;;;10.25;73.99;98984.83;106616;1273;24388;-50
2023/07/27 00:58:43;;;;;;;3.70;1.10;;;;;;;10.27;74.13;98981.82;106561;1275;99336;-53
2023/07/27 01:01:14;;;;;;;1.20;1.00;;;;;;;10.27;74.20;98983.00;106470;1272;22530;-54
2023/07/27 01:03:46;;;;;;;2.70;0.70;;;;;;;10.26;74.32;98979.06;106533;1258;23663;-53
2023/07/27 01:06:15;;;;;;;3.10;1.00;;;;;;;10.26;74.55;98974.35;106479;1272;99101;-50
2023/07/27 01:08:44;;;;;;;2.00;1.10;;;;;;;10.26;74.57;98970.70;106684;1274;25451;-51
2023/07/27 01:11:19;;;;;;;3.20;0.70;;;;;;;10.25;74.29;98973.53;106464;1273;99113;-53
2023/07/27 01:14:09;;;;;;;2.90;1.30;;;;;;;10.22;74.54;98969.89;106511;1272;25474;-54
2023/07/27 01:16:45;;;;;;;1.00;0.90;;;;;;;10.20;74.42;98965.33;106461;1273;99325;-57
2023/07/27 01:19:54;;;;;;;2.90;1.00;;;;;;;10.16;74.48;98967.63;106585;1272;22738;-55
2023/07/27 01:22:32;;;;;;;2.60;1.10;;;;;;;10.12;74.50;98969.77;106480;1271;99439;-52
2023/07/27 01:25:26;;;;;;;1.90;0.90;;;;;;;10.08;74.48;98969.80;106691;1273;24251;-52
2023/07/27 01:28:19;;;;;;;1.80;0.90;;;;;;;10.03;74.48;98973.90;106465;1273;24263;-53
2023/07/27 01:30:59;;;;;;;1.10;1.00;;;;;;;9.98;74.46;98978.88;106641;1273;23003;-51
2023/07/27 01:33:35;;;;;;;4.50;1.10;;;;;;;9.92;74.30;98980.11;106589;1272;22618;-51
2023/07/27 01:36:35;;;;;;;2.30;1.20;;;;;;;9.87;74.52;98977.59;106553;1273;98961;-53
2023/07/27 01:39:09;;;;;;;1.10;0.80;;;;;;;9.80;74.40;98971.89;106559;1275;22534;-53
2023/07/27 01:41:42;;;;;;;1.30;0.90;;;;;;;9.76;74.49;98969.76;106454;1272;98941;-52
2023/07/27 01:44:12;;;;;;;1.80;1.10;;;;;;;9.71;74.60;98965.64;106545;1273;22527;-51
2023/07/27 01:46:43;;;;;;;2.00;1.00;;;;;;;9.68;74.63;98968.11;106519;1274;99132;-53
2023/07/27 01:49:13;;;;;;;1.20;1.00;;;;;;;9.62;74.89;98974.79;106655;1273;24824;-52
2023/07/27 01:51:43;;;;;;;1.60;1.10;;;;;;;9.58;74.95;98969.66;106549;1272;24208;-51
2023/07/27 01:54:13;;;;;;;1.70;1.00;;;;;;;9.54;75.14;98966.77;106438;1274;99164;-52
2023/07/27 01:56:44;;;;;;;4.10;1.20;;;;;;;9.51;75.18;98965.17;106588;1273;24276;-52
2023/07/27 01:59:14;;;;;;;2.40;1.00;;;;;;;9.48;75.26;98962.23;106532;1273;98995;-52
2023/07/27 02:01:46;;;;;;;4.70;1.30;;;;;;;9.46;75.40;98962.86;106526;1273;22537;-51
2023/07/27 02:04:15;;;;;;;1.80;0.90;;;;;;;9.44;75.63;98966.27;106486;1272;99313;-50
2023/07/27 02:06:49;;;;;;;1.30;0.80;;;;;;;9.41;75.49;98967.12;106569;1273;23898;-54
2023/07/27 02:09:18;;;;;;;1.00;0.70;;;;;;;9.37;75.52;98964.24;106597;1276;24041;-54
2023/07/27 02:11:55;;;;;;;1.80;0.90;;;;;;;9.35;75.55;98966.95;106523;1273;99459;-55
2023/07/27 02:14:40;;;;;;;2.00;1.10;;;;;;;9.34;75.79;98969.94;106456;1272;22537;-53
2023/07/27 02:17:18;;;;;;;1.30;1.00;;;;;;;9.31;75.66;98976.69;106447;1274;99148;-52
2023/07/27 02:19:51;;;;;;;2.20;1.00;;;;;;;9.27;75.73;98979.68;106622;1274;22539;-51
2023/07/27 02:22:23;;;;;;;2.20;1.00;;;;;;;9.24;75.69;98982.28;106372;1269;99280;-50
2023/07/27 02:24:52;;;;;;;1.40;0.80;;;;;;;9.21;75.88;98974.63;106600;1272;24316;-50
2023/07/27 02:27:21;;;;;;;4.40;1.30;;;;;;;9.21;75.95;98975.85;106610;1272;23899;-52
2023/07/27 02:29:50;;;;;;;3.30;1.00;;;;;;;9.18;75.99;98978.25;106457;1273;99079;-52
2023/07/27 02:32:19;;;;;;;2.10;1.00;;;;;;;9.16;76.05;98975.94;106510;1274;24934;-50
2023/07/27 02:34:48;;;;;;;3.40;0.90;;;;;;;9.14;76.10;98973.24;106488;1274;99106;-52
2023/07/27 02:37:17;;;;;;;3.80;1.00;;;;;;;9.15;76.29;98970.78;106505;1273;22667;-52
2023/07/27 02:39:46;;;;;;;1.20;0.80;;;;;;;9.14;76.31;98964.59;106590;1277;22526;-54
2023/07/27 02:42:15;;;;;;;1.40;1.00;;;;;;;9.12;76.35;98965.89;106523;1273;98990;-53
2023/07/27 02:44:44;;;;;;;1.40;1.10;;;;;;;9.11;76.49;98965.98;106558;1274;24221;-54
2023/07/27 02:47:13;;;;;;;1.80;1.10;;;;;;;9.08;76.49;98965.59;106453;1273;98932;-53
2023/07/27 02:49:42;;;;;;;2.00;0.90;;;;;;;9.07;76.47;98967.73;106591;1272;23619;-51
2023/07/27 02:52:11;;;;;;;6.10;0.90;;;;;;;9.06;76.58;98972.48;106649;1272;25388;-52
2023/07/27 02:54:40;;;;;;;1.50;0.90;;;;;;;9.04;76.72;98968.23;106464;1274;22605;-52
2023/07/27 02:57:08;;;;;;;4.50;0.90;;;;;;;9.03;76.66;98969.68;106525;1273;22762;-53
2023/07/27 02:59:37;;;;;;;2.90;0.90;;;;;;;9.01;76.79;98972.57;106430;1273;99191;-51
2023/07/27 03:02:06;;;;;;;4.70;0.80;;;;;;;8.98;77.07;98976.73;106530;1274;22611;-53
2023/07/27 03:04:35;;;;;;;3.60;1.00;;;;;;;9.00;77.17;98977.49;106478;1273;99796;-56
2023/07/27 03:07:05;;;;;;;1.60;0.70;;;;;;;8.99;76.89;98982.39;106575;1274;22519;-53
2023/07/27 03:09:34;;;;;;;1.30;1.00;;;;;;;8.96;77.06;98980.09;106533;1272;25393;-54
2023/07/27 03:12:04;;;;;;;1.40;0.90;;;;;;;8.93;77.26;98978.88;106565;1268;99830;-52
2023/07/27 03:14:32;;;;;;;1.50;1.00;;;;;;;8.96;77.33;98982.88;106498;1274;24253;-53
2023/07/27 03:17:02;;;;;;;2.70;0.90;;;;;;;8.98;77.29;98983.31;106395;1272;98985;-51
2023/07/27 03:19:31;;;;;;;3.30;1.30;;;;;;;9.00;77.48;98987.20;106590;1272;22551;-53
2023/07/27 03:22:00;;;;;;;1.60;1.00;;;;;;;9.02;77.61;98991.23;106555;1272;25535;-51
2023/07/27 03:24:28;;;;;;;4.00;0.90;;;;;;;9.06;77.56;98992.62;106576;1274;99465;-53
2023/07/27 03:26:57;;;;;;;3.20;0.80;;;;;;;9.08;77.83;98995.80;106582;1272;25480;-52
2023/07/27 03:29:27;;;;;;;2.90;0.80;;;;;;;9.13;78.15;98993.30;107250;1264;98913;-51
2023/07/27 03:31:55;;;;;;;1.50;0.80;;;;;;;9.17;78.18;98994.06;106498;1273;25370;-53
2023/07/27 03:34:24;;;;;;;3.50;1.00;;;;;;;9.22;78.02;98999.61;106606;1268;100743;-52
2023/07/27 03:36:56;;;;;;;5.40;1.70;;;;;;;9.28;78.20;98999.97;106549;1273;24262;-53
2023/07/27 03:39:28;;;;;;;2.30;0.90;;;;;;;9.36;78.37;98999.88;106564;1265;25367;-51
2023/07/27 03:41:57;;;;;;;1.60;0.90;;;;;;;9.45;78.67;99001.30;106251;1272;99008;-51
2023/07/27 03:44:26;;;;;;;2.50;1.00;;;;;;;9.55;78.68;99002.11;106521;1273;23230;-54
2023/07/27 03:46:55;;;;;;;3.80;0.90;;;;;;;9.66;78.81;99001.58;106515;1274;99356;-56
2023/07/27 03:49:24;;;;;;;2.60;0.90;;;;;;;9.74;78.86;98994.66;106546;1273;25372;-56
2023/07/27 03:51:53;;;;;;;6.80;1.40;;;;;;;9.82;78.79;98994.08;106420;1274;26327;-54
2023/07/27 03:54:21;;;;;;;2.90;1.20;;;;;;;9.91;78.93;98994.45;106487;1274;98991;-52
2023/07/27 03:56:50;;;;;;;1.20;0.80;;;;;;;9.99;78.92;98998.98;106507;1276;25370;-51
2023/07/27 03:59:19;;;;;;;3.20;1.00;;;;;;;10.08;79.06;99001.80;106443;1273;99078;-51
2023/07/27 04:01:48;;;;;;;2.50;1.10;;;;;;;10.17;79.10;98997.48;106696;1272;24358;-51
2023/07/27 04:04:17;;;;;;;2.40;1.00;;;;;;;10.28;79.22;98994.27;106335;1273;99320;-52
2023/07/27 04:06:46;;;;;;;4.90;1.20;;;;;;;10.38;79.23;98995.96;106566;1272;22730;-50
2023/07/27 04:09:15;;;;;;;2.70;1.10;;;;;;;10.46;79.30;98997.02;106368;1273;23378;-52
2023/07/27 04:11:44;;;;;;;1.90;0.70;;;;;;;10.59;79.39;98999.63;106621;1269;99181;-52
2023/07/27 04:14:13;;;;;;;1.50;0.90;;;;;;;10.71;79.54;99001.88;106519;1272;22885;-51
2023/07/27 04:16:42;;;;;;;4.00;1.00;;;;;;;10.82;79.53;98999.96;106468;1273;99860;-49
2023/07/27 04:19:11;;;;;;;2.40;0.90;;;;;;;10.94;79.64;98998.73;106578;1272;25523;-51
2023/07/27 04:21:40;;;;;;;12.20;1.40;;;;;;;11.06;79.65;98994.88;106597;1274;25419;-51
2023/07/27 04:24:09;;;;;;;8.50;1.00;;;;;;;11.19;79.74;98995.80;106420;1271;99316;-57
2023/07/27 04:26:38;;;;;;;1.50;0.70;;;;;;;11.31;79.72;98992.09;106588;1257;22910;-51
2023/07/27 04:29:07;;;;;;;1.70;0.90;;;;;;;11.44;79.79;98995.30;106549;1272;99130;-55
2023/07/27 04:31:36;;;;;;;1.50;0.70;;;;;;;11.58;79.76;98990.46;106578;1265;22509;-53
2023/07/27 04:34:05;;;;;;;2.20;0.60;;;;;;;11.70;79.83;98986.19;106483;1274;22530;-51
2023/07/27 04:36:33;;;;;;;6.40;1.10;;;;;;;11.83;79.92;98989.05;106401;1273;98991;-52
2023/07/27 04:39:06;;;;;;;3.10;1.40;;;;;;;11.97;79.96;98984.71;106580;1272;22529;-52
2023/07/27 04:41:35;;;;;;;1.10;0.60;;;;;;;12.11;80.10;98983.57;106421;1277;99669;-53
2023/07/27 04:44:04;;;;;;;1.30;0.70;;;;;;;12.22;79.93;98980.61;106519;1274;22533;-53
2023/07/27 04:46:33;;;;;;;1.80;0.90;;;;;;;12.32;80.07;98978.88;106629;1274;99273;-50
2023/07/27 04:49:02;;;;;;;0.90;0.60;;;;;;;12.43;80.02;98988.14;106545;1272;25377;-50
2023/07/27 04:51:31;;;;;;;1.90;0.90;;;;;;;12.54;80.02;98989.84;106525;1274;25341;-54
2023/07/27 04:54:01;;;;;;;1.30;0.70;;;;;;;12.64;79.98;98986.50;106499;1273;99183;-54
2023/07/27 04:56:30;;;;;;;1.30;0.70;;;;;;;12.77;79.98;98984.25;106712;1265;25349;-52
2023/07/27 04:59:00;;;;;;;0.90;0.60;;;;;;;12.90;79.94;98980.80;106391;1274;99276;-52
2023/07/27 05:01:29;;;;;;;1.60;0.80;;;;;;;13.02;79.90;98980.44;106373;1276;25268;-55
2023/07/27 05:03:58;;;;;;;0.90;0.80;;;;;;;13.13;79.74;98979.52;106469;1276;25290;-55
2023/07/27 05:06:27;;;;;;;2.40;0.80;;;;;;;13.25;79.81;98976.98;106533;1274;99279;-52
2023/07/27 05:08:56;;;;;;;2.70;1.00;;;;;;;13.37;79.96;98977.72;106396;1273;24262;-53
2023/07/27 05:11:25;;;;;;;4.70;1.10;;;;;;;13.50;79.97;98979.41;106209;1274;295250;-53
2023/07/27 05:13:54;;;;;;;2.40;0.80;;;;;;;13.63;79.94;98975.48;106537;1273;22874;-52
2023/07/27 05:16:23;;;;;;;1.30;0.80;;;;;;;13.74;79.88;98975.07;106528;1274;99262;-53
2023/07/27 05:18:52;;;;;;;1.60;0.70;;;;;;;13.86;79.95;98974.34;106522;1273;25435;-54
2023/07/27 05:21:24;;;;;;;2.00;0.90;;;;;;;13.97;79.94;98974.26;106593;1281;24056;-52
2023/07/27 05:23:54;;;;;;;0.90;0.60;;;;;;;14.10;79.90;98972.61;106189;1274;99293;-52
2023/07/27 05:26:23;;;;;;;1.30;0.80;;;;;;;14.23;79.96;98972.52;106490;1274;25349;-52
2023/07/27 05:28:52;;;;;;;1.20;0.70;;;;;;;14.35;79.89;98970.61;106434;1274;99296;-52
2023/07/27 05:31:20;;;;;;;2.50;0.90;;;;;;;14.48;79.94;98977.12;106473;1279;24234;-53
2023/07/27 05:33:49;;;;;;;1.80;0.90;;;;;;;14.62;79.79;98975.62;106452;1275;24220;-52
2023/07/27 05:36:18;;;;;;;0.80;0.70;;;;;;;14.69;79.52;98980.30;106499;1273;99119;-58
2023/07/27 05:38:47;;;;;;;1.20;0.60;;;;;;;14.82;79.89;98980.17;106534;1273;25337;-53
2023/07/27 05:41:16;;;;;;;1.50;0.80;;;;;;;15.00;79.62;98978.48;106289;1267;99115;-51
2023/07/27 05:43:45;;;;;;;2.10;0.90;;;;;;;15.14;79.23;98979.98;106472;1273;24283;-51
2023/07/27 05:46:14;;;;;;;5.90;0.90;;;;;;;15.28;79.16;98980.45;106552;1276;25299;-53
2023/07/27 05:48:46;;;;;;;1.80;0.80;;;;;;;15.36;78.99;98977.52;106381;1276;25261;-52
2023/07/27 05:51:15;;;;;;;1.00;0.90;;;;;;;15.48;79.14;98976.94;106357;1274;22548;-54
2023/07/27 05:53:44;;;;;;;2.30;0.90;;;;;;;15.64;79.08;98981.83;106356;1274;99081;-54
2023/07/27 05:56:15;;;;;;;0.60;0.50;;;;;;;15.76;78.78;98984.23;106722;1274;22530;-53
2023/07/27 05:58:44;;;;;;;1.20;0.60;;;;;;;15.88;78.63;98986.41;106394;1274;99662;-56
2023/07/27 06:01:17;;;;;;;2.30;0.70;;;;;;;15.97;78.52;98986.98;106510;1274;22740;-53
2023/07/27 06:03:47;;;;;;;2.40;0.70;;;;;;;16.09;78.49;98987.87;106470;1274;22570;-54
2023/07/27 06:06:35;;;;;;;1.90;0.70;;;;;;;16.22;78.42;98986.44;106269;1274;99009;-53
2023/07/27 06:09:05;;;;;;;1.20;0.40;;;;;;;16.42;78.76;98983.09;106578;1274;22595;-53
2023/07/27 06:11:35;;;;;;;2.40;0.70;;;;;;;16.65;78.28;98985.36;106405;1276;99485;-56
2023/07/27 06:14:05;;;;;;;5.30;0.90;;;;;;;16.74;77.88;98985.81;106394;1260;24241;-55
2023/07/27 06:16:42;;;;;;;1.90;1.00;;;;;;;16.86;77.97;98988.36;106434;1273;99478;-54
2023/07/27 06:19:14;;;;;;;1.10;0.60;;;;;;;16.95;77.88;98986.92;106322;1277;22952;-55
2023/07/27 06:21:43;;;;;;;0.90;0.60;;;;;;;17.04;77.45;98989.98;106266;1279;22598;-55
2023/07/27 06:24:15;;;;;;;1.10;0.60;;;;;;;17.14;77.57;98987.73;106423;1273;99450;-52
2023/07/27 06:26:45;;;;;;;4.20;0.80;;;;;;;17.26;77.02;98993.21;106617;1274;23147;-57
2023/07/27 06:29:13;;;;;;;1.40;0.60;;;;;;;17.29;76.56;98991.77;106239;1276;99150;-56
2023/07/27 06:31:43;;;;;;;2.30;0.70;;;;;;;17.35;76.50;98995.05;106310;1273;24252;-54
2023/07/27 06:34:12;;;;;;;0.80;0.50;;;;;;;17.44;75.86;98992.89;106459;1267;22530;-58
2023/07/27 06:36:41;;;;;;;2.60;0.80;;;;;;;17.48;75.80;98985.13;106407;1277;98875;-57
2023/07/27 06:39:10;;;;;;;5.40;1.10;;;;;;;17.62;75.68;98984.45;106410;1274;22551;-53
2023/07/27 06:41:39;;;;;;;5.10;0.80;;;;;;;17.77;75.49;98982.98;106391;1274;102415;-55
2023/07/27 06:44:08;;;;;;;8.00;1.10;;;;;;;17.94;75.62;98980.24;106424;1274;25511;-55
2023/07/27 06:46:37;;;;;;;3.40;0.60;;;;;;;18.10;74.49;98979.61;106396;1276;99403;-56
2023/07/27 06:49:06;;;;;;;1.90;0.50;;;;;;;18.29;74.97;98976.59;106265;1274;24259;-58
2023/07/27 06:51:35;;;;;;;2.00;0.80;;;;;;;18.43;73.90;98973.71;106419;1273;22771;-56
2023/07/27 06:54:04;;;;;;;0.50;0.40;;;;;;;18.55;74.17;98968.86;106481;1274;99942;-57
2023/07/27 06:56:34;;;;;;;0.90;0.60;;;;;;;18.82;73.86;98967.43;106436;1273;25344;-58
2023/07/27 06:59:03;;;;;;;1.20;0.50;;;;;;;19.10;73.52;98967.06;106445;1274;99119;-55
2023/07/27 07:01:32;;;;;;;0.70;0.30;;;;;;;19.57;74.21;98963.72;106357;1274;25468;-52
2023/07/27 07:04:02;;;;;;;3.90;0.40;;;;;;;20.16;73.31;98963.73;106828;1273;22540;-53
2023/07/27 07:06:31;;;;;;;4.60;0.50;;;;;;;20.68;72.81;98965.30;106276;1276;99654;-54
2023/07/27 07:09:01;;;;;;;6.60;1.00;;;;;;;21.02;70.97;98971.40;106400;1261;22538;-54
2023/07/27 07:11:30;;;;;;;1.10;0.50;;;;;;;21.41;71.20;98965.39;106484;1273;99235;-55
2023/07/27 07:14:00;;;;;;;2.60;0.60;;;;;;;22.14;71.53;98963.69;106436;1274;25421;-54
2023/07/27 07:16:30;;;;;;;3.70;0.50;;;;;;;22.91;71.12;98961.20;106113;1274;99692;-55
2023/07/27 07:18:59;;;;;;;1.80;0.60;;;;;;;23.15;68.62;98963.72;106261;1273;24371;-55
2023/07/27 07:21:28;;;;;;;1.10;0.60;;;;;;;23.35;69.69;98960.19;106597;1277;25003;-57
2023/07/27 07:23:57;;;;;;;1.40;0.50;;;;;;;23.61;68.68;98963.20;106348;1273;99199;-56
2023/07/27 07:26:26;;;;;;;1.20;0.60;;;;;;;23.65;67.64;98963.02;106401;1274;22591;-55
2023/07/27 07:28:55;;;;;;;7.00;1.10;;;;;;;24.14;68.61;98954.23;106344;1273;99314;-57
2023/07/27 07:31:25;;;;;;;0.80;0.50;;;;;;;25.23;67.67;98954.36;106442;1276;24353;-55
2023/07/27 07:33:54;;;;;;;4.80;0.90;;;;;;;26.37;66.59;98952.65;106423;1273;24788;-57
2023/07/27 07:36:25;;;;;;;1.60;0.70;;;;;;;27.29;64.07;98951.63;106700;1272;99180;-57
2023/07/27 07:38:54;;;;;;;2.00;0.60;;;;;;;27.96;62.12;98952.58;106463;1273;22560;-57
2023/07/27 07:41:22;;;;;;;2.70;0.70;;;;;;;28.68;62.33;98954.02;106336;1273;99097;-51
2023/07/27 07:43:51;;;;;;;1.10;0.60;;;;;;;29.21;60.75;98954.84;106505;1276;24441;-57
2023/07/27 07:46:23;;;;;;;1.00;0.50;;;;;;;29.66;58.57;98951.65;106267;1276;99345;-58
2023/07/27 07:48:51;;;;;;;2.20;0.60;;;;;;;30.04;56.22;98945.73;106454;1267;23890;-57
2023/07/27 07:51:20;;;;;;;6.80;1.00;;;;;;;30.59;58.18;98946.20;106448;1274;22545;-57
2023/07/27 07:53:49;;;;;;;8.80;2.20;;;;;;;31.41;57.98;98940.96;106212;1276;99188;-56
2023/07/27 07:56:19;;;;;;;1.80;0.70;;;;;;;32.24;57.46;98934.85;106287;1277;26502;-55
2023/07/27 07:58:48;;;;;;;10.90;1.20;;;;;;;32.37;55.88;98936.08;106442;1276;99533;-58
2023/07/27 08:01:17;;;;;;;4.70;1.20;;;;;;;32.67;54.85;98940.95;106797;1276;23921;-57
2023/07/27 08:03:47;;;;;;;4.70;0.70;;;;;;;33.38;53.12;98934.27;106415;1276;22527;-60
2023/07/27 08:06:17;;;;;;;4.60;0.60;;;;;;;33.23;52.90;98937.02;106158;1273;99277;-58
2023/07/27 08:08:46;;;;;;;0.50;0.30;;;;;;;33.30;46.29;98938.54;106490;1273;22640;-56
2023/07/27 08:11:14;;;;;;;1.80;0.70;;;;;;;32.94;49.26;98936.86;106475;1274;99268;-57
2023/07/27 08:13:43;;;;;;;11.90;2.50;;;;;;;33.39;48.58;98939.06;106381;1274;23893;-58
2023/07/27 08:16:12;;;;;;;3.30;0.70;;;;;;;34.01;47.73;98937.16;106450;1273;22532;-60
2023/07/27 08:18:47;;;;;;;12.70;1.70;;;;;;;34.91;46.55;98936.22;106401;1274;22582;-59
2023/07/27 08:21:17;;;;;;;2.00;0.60;;;;;;;35.18;45.05;98938.23;106494;1274;23099;-57
2023/07/27 08:23:48;;;;;;;1.80;0.50;;;;;;;34.75;44.87;98935.98;106219;1275;99158;-63
2023/07/27 08:26:17;;;;;;;2.80;0.50;;;;;;;35.23;45.00;98935.88;106266;1275;22549;-58
2023/07/27 08:28:46;;;;;;;6.20;0.60;;;;;;;36.25;43.12;98931.06;106447;1274;99348;-59
2023/07/27 08:31:15;;;;;;;2.90;1.00;;;;;;;36.64;40.78;98931.94;106544;1276;24255;-60
2023/07/27 08:33:44;;;;;;;1.70;0.60;;;;;;;36.67;40.20;98927.05;106283;1277;22530;-60
2023/07/27 08:36:13;;;;;;;1.10;0.40;;;;;;;36.87;39.76;98929.34;106359;1269;99108;-65
2023/07/27 08:38:42;;;;;;;0.70;0.30;;;;;;;37.40;38.18;98924.06;106515;1274;25349;-61
2023/07/27 08:41:11;;;;;;;0.70;0.30;;;;;;;37.20;37.01;98923.48;106328;1274;99121;-58
2023/07/27 08:43:40;;;;;;;13.50;2.20;;;;;;;36.59;36.99;98922.30;106408;1274;26510;-59
2023/07/27 08:46:11;;;;;;;2.20;0.60;;;;;;;35.93;35.40;98927.55;106618;1274;25276;-61
2023/07/27 08:48:40;;;;;;;0.70;0.20;;;;;;;34.71;35.46;98933.55;106320;1275;98993;-56
2023/07/27 08:51:09;;;;;;;1.80;0.30;;;;;;;35.25;36.57;98930.36;106414;1273;22553;-59
2023/07/27 08:53:38;;;;;;;14.90;0.90;;;;;;;36.33;36.06;98921.34;106407;1273;99133;-62
2023/07/27 08:56:07;;;;;;;6.90;1.30;;;;;;;36.45;34.11;98925.46;106510;1274;22539;-57
2023/07/27 08:58:37;;;;;;;17.00;4.20;;;;;;;35.21;33.74;98922.27;106403;1278;99384;-57
2023/07/27 09:01:06;;;;;;;4.30;1.30;;;;;;;33.65;33.77;98923.48;107423;1274;22635;-57
2023/07/27 09:03:36;;;;;;;1.40;0.40;;;;;;;32.96;35.02;98916.93;106476;1275;23434;-59
2023/07/27 09:06:05;;;;;;;2.40;0.60;;;;;;;34.06;34.93;98915.37;106319;1274;99924;-56
2023/07/27 09:08:34;;;;;;;4.90;1.10;;;;;;;35.15;34.51;98915.86;110089;1274;22301;-58
2023/07/27 09:11:08;;;;;;;1.80;0.90;;;;;;;36.04;32.89;98915.73;110073;1274;99723;-56
2023/07/27 09:13:40;;;;;;;19.10;1.30;;;;;;;35.25;31.68;98926.29;110159;1274;22478;-56
2023/07/27 09:16:09;;;;;;;1.00;0.40;;;;;;;33.63;31.15;98920.98;109577;1274;24788;-55
2023/07/27 09:18:38;;;;;;;7.10;0.60;;;;;;;31.86;31.61;98923.55;106566;1274;99690;-55
2023/07/27 09:21:08;;;;;;;1.70;0.40;;;;;;;31.82;32.35;98921.36;106419;1274;22920;-56
2023/07/27 09:23:38;;;;;;;19.60;1.30;;;;;;;32.72;31.83;98915.59;106441;1274;99178;-56
2023/07/27 09:26:10;;;;;;;2.30;0.50;;;;;;;31.84;30.29;98921.16;106428;1277;25241;-56
2023/07/27 09:28:39;;;;;;;1.40;0.30;;;;;;;30.42;30.66;98918.77;106381;1274;99305;-55
2023/07/27 09:31:07;;;;;;;1.00;0.20;;;;;;;29.26;31.34;98917.48;106476;1274;25363;-56
2023/07/27 09:33:36;;;;;;;0.50;0.30;;;;;;;28.92;31.24;98917.70;106431;1273;25298;-56
2023/07/27 09:36:07;;;;;;;0.70;0.30;;;;;;;28.13;31.08;98919.63;106357;1274;99171;-56
2023/07/27 09:38:36;;;;;;;0.50;0.10;;;;;;;27.66;31.67;98925.45;106265;1275;25412;-56
2023/07/27 09:41:07;;;;;;;2.30;0.40;;;;;;;27.88;31.56;98918.60;106338;1259;99720;-54
2023/07/27 09:43:39;;;;;;;12.10;0.90;;;;;;;27.55;31.67;98925.27;106328;1274;25421;-56
2023/07/27 09:46:08;;;;;;;7.40;0.80;;;;;;;27.25;31.76;98925.02;106501;1274;22525;-53
2023/07/27 09:48:38;;;;;;;6.10;0.60;;;;;;;27.09;31.78;98929.45;106699;1275;99479;-56
2023/07/27 09:51:08;;;;;;;3.10;0.40;;;;;;;26.74;32.00;98925.11;106451;1274;24234;-55
2023/07/27 09:53:42;;;;;;;3.40;0.60;;;;;;;27.29;32.92;98925.96;106131;1280;99194;-54
2023/07/27 09:56:12;;;;;;;0.80;0.50;;;;;;;28.41;32.68;98921.72;106460;1274;22482;-51
2023/07/27 09:58:41;;;;;;;1.00;0.40;;;;;;;29.48;32.08;98916.98;106350;1277;99837;-56
2023/07/27 10:01:10;;;;;;;12.00;1.00;;;;;;;29.24;31.65;98919.34;106495;1274;22526;-56
2023/07/27 10:03:39;;;;;;;2.70;0.50;;;;;;;28.62;31.64;98919.79;106470;1275;22541;-55
2023/07/27 10:06:09;;;;;;;8.00;0.80;;;;;;;27.66;31.83;98916.46;106313;1273;99100;-57
2023/07/27 10:08:45;;;;;;;3.20;0.70;;;;;;;27.00;32.13;98918.11;106578;1274;25418;-56
2023/07/27 10:11:47;;;;;;;1.40;0.50;;;;;;;26.39;32.38;98920.61;106384;1274;99434;-56
2023/07/27 10:14:18;;;;;;;2.10;0.50;;;;;;;25.83;32.54;98922.11;106534;1274;22531;-56
2023/07/27 10:17:06;;;;;;;1.40;0.50;;;;;;;25.31;32.64;98922.61;106372;1274;99311;-56
2023/07/27 10:19:46;;;;;;;4.30;0.80;;;;;;;25.08;33.08;98920.13;106737;1257;481258;-55
2023/07/27 10:22:19;;;;;;;19.10;1.90;;;;;;;24.93;33.17;98918.76;106903;1257;25420;-54
2023/07/27 10:24:53;;;;;;;3.70;0.60;;;;;;;24.95;33.61;98916.23;106391;1257;24246;-54
2023/07/27 10:27:23;;;;;;;3.20;0.40;;;;;;;26.80;34.85;98914.34;106362;1257;22568;-55
2023/07/27 10:30:11;;;;;;;4.10;0.70;;;;;;;29.62;34.09;98903.61;106433;1260;99194;-54
2023/07/27 10:33:08;;;;;;;3.30;0.30;;;;;;;31.51;32.00;98907.19;106368;1259;23889;-56
2023/07/27 10:36:01;;;;;;;3.60;0.40;;;;;;;30.95;31.62;98908.17;106751;1260;99946;-56
2023/07/27 10:38:32;;;;;;;1.70;0.30;;;;;;;30.87;33.01;98906.54;106460;1259;23901;-59
2023/07/27 10:41:12;;;;;;;2.60;0.50;;;;;;;32.49;33.33;98905.33;106316;1260;99320;-57
2023/07/27 10:44:10;;;;;;;7.30;1.00;;;;;;;34.80;32.48;98903.27;106235;1260;25381;-54
2023/07/27 10:46:45;;;;;;;2.70;0.40;;;;;;;37.17;31.54;98890.11;106277;1259;99053;-57
2023/07/27 10:49:16;;;;;;;7.20;0.50;;;;;;;38.74;31.04;98886.46;106413;1260;27038;-57
2023/07/27 10:51:57;;;;;;;8.70;0.80;;;;;;;39.69;30.63;98886.54;106291;1259;23626;-55
2023/07/27 10:54:29;;;;;;;1.50;0.50;;;;;;;40.84;30.48;98883.70;106089;1260;99832;-56
2023/07/27 10:57:02;;;;;;;4.20;0.60;;;;;;;41.73;28.83;98881.31;106121;1260;25406;-55
2023/07/27 10:59:35;;;;;;;14.10;1.70;;;;;;;41.16;27.74;98880.38;106141;1261;99208;-56
2023/07/27 11:02:24;;;;;;;4.20;0.70;;;;;;;39.45;27.12;98884.40;106175;1260;22535;-56
2023/07/27 11:04:57;;;;;;;1.40;0.40;;;;;;;37.49;27.48;98884.59;106298;1260;99309;-56
2023/07/27 11:07:33;;;;;;;3.20;0.60;;;;;;;38.06;27.89;98884.56;106326;1260;23694;-57
2023/07/27 11:10:20;;;;;;;3.70;0.70;;;;;;;38.46;26.90;98881.52;106366;1259;23934;-57
2023/07/27 11:12:54;;;;;;;3.90;0.50;;;;;;;38.96;26.39;98883.19;106370;1260;22546;-56
2023/07/27 11:15:25;;;;;;;7.10;1.00;;;;;;;39.12;25.92;98882.20;106348;1260;24300;-57
2023/07/27 11:17:59;;;;;;;5.40;1.10;;;;;;;39.06;25.84;98880.77;106160;1261;99144;-55
2023/07/27 11:20:28;;;;;;;25.20;2.40;;;;;;;39.46;25.63;98879.14;106316;1259;22590;-55
2023/07/27 11:22:59;;;;;;;2.00;0.50;;;;;;;39.16;23.88;98879.80;106251;1260;100016;-57
2023/07/27 11:25:32;;;;;;;0.90;0.30;;;;;;;37.71;24.53;98871.52;106332;1260;23599;-55
2023/07/27 11:28:01;;;;;;;2.30;0.40;;;;;;;37.28;24.61;98870.98;106189;1259;22591;-56
2023/07/27 11:30:36;;;;;;;4.30;0.50;;;;;;;37.61;24.56;98867.31;106266;1259;99163;-57
2023/07/27 11:33:05;;;;;;;0.80;0.50;;;;;;;37.91;23.67;98868.76;106306;1260;22583;-56
2023/07/27 11:35:45;;;;;;;2.50;0.50;;;;;;;37.73;23.81;98864.23;106339;1258;99660;-55
2023/07/27 11:38:14;;;;;;;1.70;0.50;;;;;;;37.07;24.15;98863.61;109862;1259;22767;-55
2023/07/27 11:40:46;;;;;;;1.30;0.40;;;;;;;37.34;24.51;98860.81;106371;1257;100150;-55
2023/07/27 11:43:15;;;;;;;3.70;0.40;;;;;;;37.93;24.05;98861.95;106291;1258;24321;-55
2023/07/27 11:45:44;;;;;;;15.20;2.00;;;;;;;38.26;23.55;98863.42;106405;1258;24385;-55